createdAt,value
2023-02-17T00:01:54.680Z,75.30
2023-02-17T00:04:57.841Z,75.00
2023-02-17T00:08:00.820Z,75.40
2023-02-17T00:11:04.353Z,75.40
2023-02-17T00:14:12.973Z,75.50
2023-02-17T00:17:16.066Z,75.70
2023-02-17T00:20:19.450Z,76.90
2023-02-17T00:23:22.581Z,76.60
2023-02-17T00:26:25.642Z,75.80
2023-02-17T00:29:30.405Z,75.70
2023-02-17T00:32:33.489Z,75.80
2023-02-17T00:35:41.852Z,75.80
2023-02-17T00:38:45.354Z,75.80
2023-02-17T00:41:48.470Z,75.80
2023-02-17T00:44:52.839Z,75.90
2023-02-17T00:47:55.908Z,76.30
2023-02-17T00:50:59.707Z,75.40
2023-02-17T00:54:02.676Z,75.80
2023-02-17T00:57:05.917Z,75.80
2023-02-17T01:00:12.044Z,75.90
2023-02-17T01:03:15.355Z,75.80
2023-02-17T01:06:25.896Z,75.80
2023-02-17T01:09:29.016Z,75.80
2023-02-17T01:12:32.253Z,76.00
2023-02-17T01:15:41.977Z,76.00
2023-02-17T01:18:45.041Z,77.30
2023-02-17T01:21:48.195Z,76.10
2023-02-17T01:24:51.336Z,76.00
2023-02-17T01:27:55.384Z,75.00
2023-02-17T01:30:59.859Z,77.20
2023-02-17T01:34:06.469Z,76.20
2023-02-17T01:37:09.730Z,75.90
2023-02-17T01:40:15.015Z,76.20
2023-02-17T01:43:19.190Z,76.00
2023-02-17T01:46:23.589Z,76.00
2023-02-17T01:49:34.018Z,76.80
2023-02-17T01:52:37.650Z,76.30
2023-02-17T01:55:42.819Z,76.30
2023-02-17T01:58:56.175Z,76.40
2023-02-17T02:02:04.673Z,76.60
2023-02-17T02:05:08.130Z,76.70
2023-02-17T02:08:13.989Z,76.70
2023-02-17T02:11:17.056Z,76.80
2023-02-17T02:14:22.045Z,76.40
2023-02-17T02:17:41.083Z,77.10
2023-02-17T02:21:15.102Z,77.70
2023-02-17T02:24:28.407Z,77.50
2023-02-17T02:28:01.289Z,77.30
2023-02-17T02:31:38.063Z,77.70
2023-02-17T02:34:49.219Z,77.80
2023-02-17T02:38:01.279Z,77.60
2023-02-17T02:41:10.846Z,77.60
2023-02-17T02:44:17.078Z,77.10
2023-02-17T02:47:50.433Z,77.70
2023-02-17T02:51:22.312Z,78.60
2023-02-17T02:54:47.149Z,77.50
2023-02-17T02:57:59.520Z,78.30
2023-02-17T03:01:14.153Z,78.00
2023-02-17T03:04:31.766Z,78.10
2023-02-17T03:07:42.496Z,78.10
2023-02-17T03:10:53.568Z,78.10
2023-02-17T03:13:56.643Z,78.10
2023-02-17T03:16:59.606Z,78.00
2023-02-17T03:20:05.300Z,78.00
2023-02-17T03:23:10.403Z,78.00
2023-02-17T03:26:13.576Z,78.20
2023-02-17T03:29:16.895Z,78.10
2023-02-17T03:32:21.579Z,78.20
2023-02-17T03:35:24.872Z,78.20
2023-02-17T03:38:29.696Z,79.30
2023-02-17T03:41:32.670Z,78.40
2023-02-17T03:44:35.976Z,78.60
2023-02-17T03:47:39.113Z,78.20
2023-02-17T03:50:42.673Z,78.30
2023-02-17T03:53:47.595Z,78.20
2023-02-17T03:56:50.639Z,78.30
2023-02-17T03:59:53.700Z,78.30
2023-02-17T04:02:57.902Z,78.40
2023-02-17T04:06:01.528Z,78.50
2023-02-17T04:09:07.238Z,79.40
2023-02-17T04:12:10.448Z,78.80
2023-02-17T04:15:13.810Z,78.90
2023-02-17T04:18:17.791Z,78.90
2023-02-17T04:21:20.852Z,79.00
2023-02-17T04:24:25.303Z,80.50
2023-02-17T04:27:28.394Z,78.90
2023-02-17T04:30:32.000Z,78.90
2023-02-17T04:33:35.692Z,78.90
2023-02-17T04:36:38.721Z,78.90
2023-02-17T04:39:43.238Z,78.90
2023-02-17T04:42:46.737Z,79.60
2023-02-17T04:45:51.489Z,78.90
2023-02-17T04:48:55.051Z,78.90
2023-02-17T04:51:58.069Z,78.90
2023-02-17T04:55:04.850Z,78.80
2023-02-17T04:58:08.244Z,79.00
2023-02-17T05:01:11.529Z,78.80
2023-02-17T05:04:14.534Z,79.00
2023-02-17T05:07:17.560Z,79.00
2023-02-17T05:10:23.982Z,79.00
2023-02-17T05:13:27.555Z,79.00
2023-02-17T05:16:30.627Z,78.90
2023-02-17T05:19:33.859Z,78.90
2023-02-17T05:22:37.546Z,78.80
2023-02-17T05:25:41.903Z,78.80
2023-02-17T05:28:44.949Z,78.90
2023-02-17T05:31:48.133Z,79.60
2023-02-17T05:34:51.543Z,78.80
2023-02-17T05:37:54.591Z,79.70
2023-02-17T05:40:59.308Z,78.80
2023-02-17T05:44:02.403Z,78.90
2023-02-17T05:47:06.135Z,78.70
2023-02-17T05:50:09.964Z,78.80
2023-02-17T05:53:13.038Z,79.60
2023-02-17T05:56:17.585Z,78.90
2023-02-17T05:59:21.011Z,78.80
2023-02-17T06:02:24.080Z,79.50
2023-02-17T06:05:27.053Z,78.70
2023-02-17T06:08:30.041Z,78.80
2023-02-17T06:11:34.727Z,79.50
2023-02-17T06:14:37.915Z,79.00
2023-02-17T06:17:42.463Z,78.60
2023-02-17T06:20:45.864Z,78.70
2023-02-17T06:23:49.195Z,78.60
2023-02-17T06:26:53.649Z,78.60
2023-02-17T06:29:56.705Z,78.60
2023-02-17T06:33:00.118Z,78.60
2023-02-17T06:36:03.432Z,78.60
2023-02-17T06:39:06.684Z,78.10
2023-02-17T06:42:11.241Z,78.80
2023-02-17T06:45:14.589Z,78.70
2023-02-17T06:48:17.545Z,78.70
2023-02-17T06:51:20.672Z,78.80
2023-02-17T06:54:23.855Z,78.80
2023-02-17T06:57:28.275Z,78.80
2023-02-17T07:00:31.449Z,79.50
2023-02-17T07:03:34.541Z,79.10
2023-02-17T07:06:37.675Z,79.20
2023-02-17T07:09:41.482Z,79.90
2023-02-17T07:12:46.029Z,79.30
2023-02-17T07:15:49.063Z,78.70
2023-02-17T07:18:52.692Z,78.80
2023-02-17T07:21:55.864Z,78.70
2023-02-17T07:24:58.882Z,78.80
2023-02-17T07:28:03.180Z,78.90
2023-02-17T07:31:07.783Z,78.90
2023-02-17T07:34:10.792Z,78.90
2023-02-17T07:37:13.773Z,78.80
2023-02-17T07:40:16.796Z,78.80
2023-02-17T07:43:21.186Z,78.70
2023-02-17T07:46:24.949Z,78.60
2023-02-17T07:49:27.968Z,78.60
2023-02-17T07:52:31.106Z,78.70
2023-02-17T07:55:34.069Z,78.80
2023-02-17T07:58:41.086Z,79.00
2023-02-17T08:01:44.301Z,79.20
2023-02-17T08:04:47.406Z,79.20
2023-02-17T08:08:10.816Z,79.30
2023-02-17T08:11:33.655Z,80.20
2023-02-17T08:14:38.621Z,79.40
2023-02-17T08:17:41.678Z,79.40
2023-02-17T08:20:44.858Z,79.50
2023-02-17T08:23:47.972Z,79.60
2023-02-17T08:26:51.381Z,79.50
2023-02-17T08:29:56.046Z,79.50
2023-02-17T08:32:59.997Z,79.60
2023-02-17T08:36:08.494Z,79.50
2023-02-17T08:39:15.624Z,79.60
2023-02-17T08:42:19.751Z,79.50
2023-02-17T08:45:24.168Z,79.50
2023-02-17T08:48:27.336Z,79.00
2023-02-17T08:51:30.417Z,79.50
2023-02-17T08:54:33.582Z,79.40
2023-02-17T08:57:36.714Z,80.30
2023-02-17T09:00:41.279Z,79.50
2023-02-17T09:03:44.292Z,79.50
2023-02-17T09:06:51.280Z,80.40
2023-02-17T09:09:54.446Z,79.40
2023-02-17T09:12:57.918Z,79.40
2023-02-17T09:16:02.406Z,79.50
2023-02-17T09:19:06.348Z,79.70
2023-02-17T09:22:12.061Z,79.50
2023-02-17T09:25:19.673Z,79.50
2023-02-17T09:28:22.593Z,79.40
2023-02-17T09:31:28.618Z,80.00
2023-02-17T09:34:36.678Z,79.20
2023-02-17T09:37:41.556Z,79.30
2023-02-17T09:40:48.999Z,79.30
2023-02-17T09:43:53.245Z,79.30
2023-02-17T09:47:03.244Z,79.30
2023-02-17T09:50:13.580Z,80.80
2023-02-17T09:53:28.184Z,79.30
2023-02-17T09:56:38.004Z,78.70
2023-02-17T09:59:49.853Z,79.40
2023-02-17T10:03:00.600Z,79.40
2023-02-17T10:06:16.134Z,79.50
2023-02-17T10:09:25.256Z,79.60
2023-02-17T10:12:38.655Z,79.50
2023-02-17T10:15:51.605Z,79.50
2023-02-17T10:19:02.910Z,79.90
2023-02-17T10:22:17.704Z,79.50
2023-02-17T10:25:39.045Z,79.40
2023-02-17T10:28:54.293Z,79.30
2023-02-17T10:32:19.438Z,79.40
2023-02-17T10:35:39.753Z,79.40
2023-02-17T10:38:53.057Z,79.30
2023-02-17T10:41:57.183Z,79.30
2023-02-17T10:45:02.980Z,79.20
2023-02-17T10:48:13.800Z,80.30
2023-02-17T10:51:23.533Z,79.50
2023-02-17T10:54:35.668Z,79.30
2023-02-17T10:57:41.989Z,79.40
2023-02-17T11:00:47.570Z,79.40
2023-02-17T11:04:02.702Z,79.40
2023-02-17T11:07:14.743Z,79.70
2023-02-17T11:10:23.721Z,79.30
2023-02-17T11:13:37.122Z,79.30
2023-02-17T11:16:45.508Z,79.10
2023-02-17T11:19:59.457Z,78.90
2023-02-17T11:23:21.859Z,79.50
2023-02-17T11:26:28.715Z,79.20
2023-02-17T11:29:33.129Z,80.10
2023-02-17T11:32:37.250Z,79.90
2023-02-17T11:35:50.401Z,79.80
2023-02-17T11:38:55.170Z,80.00
2023-02-17T11:41:58.497Z,79.40
2023-02-17T11:45:16.497Z,79.40
2023-02-17T11:48:53.749Z,80.10
2023-02-17T11:52:15.062Z,80.10
2023-02-17T11:55:35.889Z,80.30
2023-02-17T11:59:05.286Z,80.10
2023-02-17T12:02:19.185Z,80.00
2023-02-17T12:05:31.376Z,80.00
2023-02-17T12:08:49.211Z,79.90
2023-02-17T12:12:06.798Z,79.80
2023-02-17T12:15:29.997Z,79.90
2023-02-17T12:18:52.938Z,80.10
2023-02-17T12:22:13.196Z,80.50
2023-02-17T12:25:32.603Z,79.90
2023-02-17T12:29:03.209Z,80.10
2023-02-17T12:32:35.801Z,80.60
2023-02-17T12:35:51.039Z,80.80
2023-02-17T12:39:00.421Z,80.60
2023-02-17T12:42:11.620Z,80.40
2023-02-17T12:45:26.288Z,79.60
2023-02-17T12:48:37.663Z,80.50
2023-02-17T12:51:49.233Z,80.20
2023-02-17T12:54:59.055Z,80.10
2023-02-17T12:58:08.274Z,80.40
2023-02-17T13:01:19.785Z,79.80
2023-02-17T13:04:26.459Z,79.70
2023-02-17T13:07:45.938Z,79.60
2023-02-17T13:11:07.302Z,79.60
2023-02-17T13:14:26.377Z,79.40
2023-02-17T13:17:34.239Z,79.70
2023-02-17T13:21:06.469Z,79.50
2023-02-17T13:24:31.716Z,79.80
2023-02-17T13:27:42.996Z,79.70
2023-02-17T13:30:52.372Z,79.80
2023-02-17T13:34:00.597Z,79.90
2023-02-17T13:37:18.003Z,80.60
2023-02-17T13:40:39.499Z,80.50
2023-02-17T13:43:47.448Z,79.20
2023-02-17T13:46:52.557Z,78.90
2023-02-17T13:49:58.667Z,77.40
2023-02-17T13:53:03.779Z,77.00
2023-02-17T13:56:10.890Z,76.60
2023-02-17T13:59:18.735Z,75.80
2023-02-17T14:02:35.472Z,74.80
2023-02-17T14:05:48.406Z,74.70
2023-02-17T14:08:56.765Z,73.70
2023-02-17T14:12:05.481Z,71.20
2023-02-17T14:15:18.591Z,72.20
2023-02-17T14:18:41.916Z,70.90
2023-02-17T14:21:59.686Z,72.40
2023-02-17T14:25:07.643Z,70.50
2023-02-17T14:28:21.164Z,70.30
2023-02-17T14:31:25.589Z,66.90
2023-02-17T14:34:33.049Z,67.50
2023-02-17T14:37:37.447Z,67.20
2023-02-17T14:40:40.907Z,66.30
2023-02-17T14:43:43.871Z,66.70
2023-02-17T14:46:46.853Z,68.70
2023-02-17T14:49:49.860Z,67.20
2023-02-17T14:52:54.433Z,66.70
2023-02-17T14:56:03.028Z,67.40
2023-02-17T14:59:06.252Z,67.50
2023-02-17T15:02:15.592Z,67.50
2023-02-17T15:05:19.581Z,67.70
2023-02-17T15:08:32.692Z,67.20
2023-02-17T15:11:38.368Z,67.10
2023-02-17T15:14:42.070Z,67.30
2023-02-17T15:17:45.530Z,66.40
2023-02-17T15:20:51.995Z,66.20
2023-02-17T15:23:58.566Z,67.00
2023-02-17T15:27:02.848Z,65.10
2023-02-17T15:30:07.643Z,64.30
2023-02-17T15:33:13.175Z,62.10
2023-02-17T15:36:18.798Z,61.40
2023-02-17T15:42:27.384Z,62.50
2023-02-17T15:45:31.545Z,63.30
2023-02-17T15:48:34.649Z,63.00
2023-02-17T15:51:37.746Z,63.20
2023-02-17T15:54:43.756Z,63.30
2023-02-17T15:57:50.855Z,62.60
2023-02-17T16:04:00.196Z,62.40
2023-02-17T16:07:03.181Z,62.80
2023-02-17T16:10:09.850Z,62.50
2023-02-17T16:13:16.821Z,62.80
2023-02-17T16:16:24.232Z,62.50
2023-02-17T16:19:28.342Z,62.90
2023-02-17T16:22:31.346Z,62.40
2023-02-17T16:25:36.525Z,62.50
2023-02-17T16:28:40.193Z,62.40
2023-02-17T16:31:43.967Z,60.60
2023-02-17T16:34:47.083Z,62.10
2023-02-17T16:37:56.062Z,61.90
2023-02-17T16:41:02.070Z,61.80
2023-02-17T16:44:07.541Z,62.10
2023-02-17T16:47:22.867Z,63.20
2023-02-17T16:50:29.488Z,62.00
2023-02-17T16:53:32.665Z,62.00
2023-02-17T16:56:43.329Z,62.30
2023-02-17T16:59:47.065Z,61.90
2023-02-17T17:02:51.130Z,61.60
2023-02-17T17:05:54.840Z,62.40
2023-02-17T17:08:58.198Z,62.40
2023-02-17T17:12:02.576Z,62.40
2023-02-17T17:15:06.459Z,62.60
2023-02-17T17:18:16.581Z,62.80
2023-02-17T17:21:21.467Z,62.40
2023-02-17T17:24:24.603Z,63.30
2023-02-17T17:30:35.860Z,63.20
2023-02-17T17:33:39.081Z,64.40
2023-02-17T17:36:45.587Z,64.10
2023-02-17T17:39:48.521Z,64.20
2023-02-17T17:42:53.648Z,65.10
2023-02-17T17:45:56.859Z,64.40
2023-02-17T17:49:05.560Z,64.30
2023-02-17T17:52:08.815Z,64.60
2023-02-17T17:55:11.961Z,63.80
2023-02-17T17:58:17.339Z,64.80
2023-02-17T18:01:21.853Z,64.80
2023-02-17T18:04:25.066Z,64.20
2023-02-17T18:07:30.541Z,64.60
2023-02-17T18:10:34.563Z,63.90
2023-02-17T18:13:39.529Z,64.60
2023-02-17T18:16:46.363Z,64.50
2023-02-17T18:19:54.528Z,64.00
2023-02-17T18:22:57.577Z,64.60
2023-02-17T18:26:01.162Z,64.70
2023-02-17T18:29:06.073Z,64.40
2023-02-17T18:32:09.326Z,65.20
2023-02-17T18:35:12.767Z,65.50
2023-02-17T18:38:15.985Z,65.70
2023-02-17T18:41:21.210Z,65.90
2023-02-17T18:44:25.695Z,66.20
2023-02-17T18:47:28.816Z,65.40
2023-02-17T18:50:32.976Z,66.10
2023-02-17T18:53:36.211Z,66.60
2023-02-17T18:56:39.674Z,66.50
2023-02-17T18:59:44.597Z,66.60
2023-02-17T19:02:47.749Z,67.00
2023-02-17T19:05:51.790Z,66.70
2023-02-17T19:08:55.611Z,64.90
2023-02-17T19:15:05.784Z,64.90
2023-02-17T19:18:08.938Z,65.40
2023-02-17T19:21:12.857Z,66.10
2023-02-17T19:24:16.908Z,67.00
2023-02-17T19:27:20.101Z,66.30
2023-02-17T19:30:24.564Z,66.60
2023-02-17T19:33:28.965Z,66.10
2023-02-17T19:36:32.039Z,66.00
2023-02-17T19:39:36.803Z,67.30
2023-02-17T19:42:40.280Z,65.10
2023-02-17T19:45:47.526Z,65.80
2023-02-17T19:48:50.975Z,65.90
2023-02-17T19:51:55.841Z,65.80
2023-02-17T19:54:59.641Z,65.20
2023-02-17T19:58:04.398Z,65.70
2023-02-17T20:01:11.148Z,65.60
2023-02-17T20:04:14.279Z,65.70
2023-02-17T20:07:17.298Z,65.60
2023-02-17T20:10:21.396Z,65.50
2023-02-17T20:13:28.548Z,64.50
2023-02-17T20:16:33.814Z,65.30
2023-02-17T20:19:39.013Z,65.30
2023-02-17T20:22:42.458Z,64.20
2023-02-17T20:25:46.603Z,65.30
2023-02-17T20:28:50.470Z,65.10
2023-02-17T20:31:55.237Z,64.40
2023-02-17T20:34:58.309Z,64.60
2023-02-17T20:38:01.585Z,64.40
2023-02-17T20:41:05.319Z,64.10
2023-02-17T20:44:08.629Z,64.80
2023-02-17T20:47:13.428Z,63.60
2023-02-17T20:50:21.026Z,63.30
2023-02-17T20:53:24.857Z,62.90
2023-02-17T20:56:35.219Z,62.90
2023-02-17T20:59:38.301Z,62.80
2023-02-17T21:02:42.699Z,62.10
2023-02-17T21:05:45.756Z,62.30
2023-02-17T21:08:53.483Z,62.00
2023-02-17T21:11:56.838Z,62.60
2023-02-17T21:14:59.900Z,63.20
2023-02-17T21:18:05.508Z,61.50
2023-02-17T21:21:08.848Z,62.40
2023-02-17T21:24:12.585Z,62.60
2023-02-17T21:27:15.548Z,62.50
2023-02-17T21:30:19.699Z,62.30
2023-02-17T21:33:24.424Z,62.40
2023-02-17T21:36:29.289Z,62.00
2023-02-17T21:39:32.683Z,62.10
2023-02-17T21:42:55.536Z,62.10
2023-02-17T21:45:58.827Z,61.90
2023-02-17T21:49:03.320Z,62.00
2023-02-17T21:52:06.694Z,61.40
2023-02-17T21:55:09.804Z,61.40
2023-02-17T21:58:14.264Z,61.40
2023-02-17T22:01:18.696Z,61.60
2023-02-17T22:04:23.875Z,61.90
2023-02-17T22:07:26.934Z,62.00
2023-02-17T22:10:30.180Z,62.20
2023-02-17T22:13:33.184Z,62.30
2023-02-17T22:16:37.660Z,62.50
2023-02-17T22:19:42.310Z,62.60
2023-02-17T22:22:45.312Z,62.30
2023-02-17T22:25:48.321Z,62.50
2023-02-17T22:28:52.372Z,62.40
2023-02-17T22:31:56.098Z,62.30
2023-02-17T22:35:00.676Z,63.80
2023-02-17T22:38:03.967Z,61.90
2023-02-17T22:41:09.076Z,61.70
2023-02-17T22:44:12.162Z,61.60
2023-02-17T22:47:15.387Z,62.40
2023-02-17T22:50:20.050Z,61.50
2023-02-17T22:53:24.350Z,61.20
2023-02-17T22:56:28.067Z,61.30
2023-02-17T22:59:31.098Z,61.40
2023-02-17T23:02:36.058Z,61.20
2023-02-17T23:05:42.119Z,61.40
2023-02-17T23:08:45.855Z,61.40
2023-02-17T23:11:54.633Z,61.40
2023-02-17T23:14:59.872Z,61.40
2023-02-17T23:18:03.012Z,61.40
2023-02-17T23:21:13.548Z,61.50
2023-02-17T23:24:17.460Z,61.20
2023-02-17T23:27:20.528Z,61.30
2023-02-17T23:30:24.194Z,61.30
2023-02-17T23:33:27.261Z,61.80
2023-02-17T23:36:32.072Z,61.10
2023-02-17T23:39:38.756Z,61.90
2023-02-17T23:42:41.816Z,61.50
2023-02-17T23:45:45.468Z,61.00
2023-02-17T23:48:48.543Z,61.00
2023-02-17T23:51:53.286Z,60.20
2023-02-17T23:54:56.462Z,61.20
2023-02-17T23:58:00.562Z,61.10
